<?xml version="1.0" encoding="UTF-8" standalone="no" ?>
<gpx xmlns="http://www.topografix.com/GPX/1/1" xmlns:xsi="http://www.w3.org/2001/XMLSchema-instance" xsi:schemaLocation="http://www.topografix.com/GPX/1/1 http://www.topografix.com/GPX/1/1/gpx.xsd" version="1.1" creator="VisuGPX - https://www.visugpx.com">
  <metadata>
    <name>RoadTrip Moto Ecosse Juin 2021 - V3</name>
  </metadata>
  <trk>
    <name><![CDATA[WE02 - Amsterdam - NewCastle]]></name>
    <extensions>
      <line xmlns="http://www.topografix.com/GPX/gpx_style/0/2">
        <color>00FF00</color>
        <width>4</width>
      </line>
    </extensions>
    <trkseg>
      <trkpt lat="52.4627" lon="4.58427">
        <ele>4.79</ele>
        <time>2021-03-20T14:36:00Z</time>
      </trkpt>
      <trkpt lat="52.46267" lon="4.58428">
        <ele>5.18</ele>
        <time>2021-03-20T14:37:33Z</time>
      </trkpt>
      <trkpt lat="52.46263" lon="4.5844">
        <ele>5.91</ele>
        <time>2021-03-20T14:39:07Z</time>
      </trkpt>
      <trkpt lat="52.46253" lon="4.58461">
        <ele>5.91</ele>
        <time>2021-03-20T14:40:40Z</time>
      </trkpt>
      <trkpt lat="52.46248" lon="4.58463">
        <ele>5.91</ele>
        <time>2021-03-20T14:42:14Z</time>
      </trkpt>
      <trkpt lat="52.46244" lon="4.58463">
        <ele>5.91</ele>
        <time>2021-03-20T14:43:47Z</time>
      </trkpt>
      <trkpt lat="52.46239" lon="4.58459">
        <ele>5.91</ele>
        <time>2021-03-20T14:45:20Z</time>
      </trkpt>
      <trkpt lat="52.46234" lon="4.58454">
        <ele>5.91</ele>
        <time>2021-03-20T14:46:54Z</time>
      </trkpt>
      <trkpt lat="52.46232" lon="4.58445">
        <ele>5.91</ele>
        <time>2021-03-20T14:48:27Z</time>
      </trkpt>
      <trkpt lat="52.4623" lon="4.58427">
        <ele>5.91</ele>
        <time>2021-03-20T14:50:00Z</time>
      </trkpt>
      <trkpt lat="52.46231" lon="4.58405">
        <ele>5.91</ele>
        <time>2021-03-20T14:51:34Z</time>
      </trkpt>
      <trkpt lat="52.46239" lon="4.58348">
        <ele>5.91</ele>
        <time>2021-03-20T14:53:07Z</time>
      </trkpt>
      <trkpt lat="52.46261" lon="4.58278">
        <ele>5.91</ele>
        <time>2021-03-20T14:54:41Z</time>
      </trkpt>
      <trkpt lat="52.4633" lon="4.58087">
        <ele>5.91</ele>
        <time>2021-03-20T14:56:14Z</time>
      </trkpt>
      <trkpt lat="52.46344" lon="4.58023">
        <ele>5.91</ele>
        <time>2021-03-20T14:57:47Z</time>
      </trkpt>
      <trkpt lat="52.46353" lon="4.57941">
        <ele>5.91</ele>
        <time>2021-03-20T14:59:21Z</time>
      </trkpt>
      <trkpt lat="52.46355" lon="4.57847">
        <ele>5.91</ele>
        <time>2021-03-20T15:00:54Z</time>
      </trkpt>
      <trkpt lat="52.46325" lon="4.57299">
        <ele>5.9</ele>
        <time>2021-03-20T15:02:28Z</time>
      </trkpt>
      <trkpt lat="52.46325" lon="4.57133">
        <ele>5.9</ele>
        <time>2021-03-20T15:04:01Z</time>
      </trkpt>
      <trkpt lat="52.46332" lon="4.56958">
        <ele>5.9</ele>
        <time>2021-03-20T15:05:34Z</time>
      </trkpt>
      <trkpt lat="52.46622" lon="4.53831">
        <ele>5.9</ele>
        <time>2021-03-20T15:07:08Z</time>
      </trkpt>
      <trkpt lat="52.46668" lon="4.53422">
        <ele>5.9</ele>
        <time>2021-03-20T15:08:41Z</time>
      </trkpt>
      <trkpt lat="52.46736" lon="4.53031">
        <ele>5.9</ele>
        <time>2021-03-20T15:10:15Z</time>
      </trkpt>
      <trkpt lat="52.46849" lon="4.52628">
        <ele>5.9</ele>
        <time>2021-03-20T15:11:48Z</time>
      </trkpt>
      <trkpt lat="52.47129" lon="4.51986">
        <ele>5.9</ele>
        <time>2021-03-20T15:13:21Z</time>
      </trkpt>
      <trkpt lat="52.50575" lon="4.43971">
        <ele>5.58</ele>
        <time>2021-03-20T15:14:55Z</time>
      </trkpt>
      <trkpt lat="52.50575" lon="4.43971">
        <ele>5.58</ele>
        <time>2021-03-20T15:14:55Z</time>
      </trkpt>
      <trkpt lat="53.80859" lon="1.40977">
        <ele>5.58</ele>
        <time>2021-03-21T05:32:34Z</time>
      </trkpt>
      <trkpt lat="53.80859" lon="1.40977">
        <ele>5.58</ele>
        <time>2021-03-21T05:32:34Z</time>
      </trkpt>
      <trkpt lat="54.2125" lon="0.4704">
        <ele>5.58</ele>
        <time>2021-03-21T09:54:58Z</time>
      </trkpt>
      <trkpt lat="54.2125" lon="0.4704">
        <ele>5.58</ele>
        <time>2021-03-21T09:54:58Z</time>
      </trkpt>
      <trkpt lat="54.38461" lon="0.07013">
        <ele>5.58</ele>
        <time>2021-03-21T11:46:16Z</time>
      </trkpt>
      <trkpt lat="54.38461" lon="0.07013">
        <ele>5.58</ele>
        <time>2021-03-21T11:46:16Z</time>
      </trkpt>
      <trkpt lat="54.70783" lon="-0.68157">
        <ele>5.58</ele>
        <time>2021-03-21T15:14:29Z</time>
      </trkpt>
      <trkpt lat="54.70783" lon="-0.68157">
        <ele>5.58</ele>
        <time>2021-03-21T15:14:29Z</time>
      </trkpt>
      <trkpt lat="54.99347" lon="-1.34585">
        <ele>5.58</ele>
        <time>2021-03-21T18:17:36Z</time>
      </trkpt>
      <trkpt lat="54.99347" lon="-1.34585">
        <ele>5.58</ele>
        <time>2021-03-21T18:17:36Z</time>
      </trkpt>
      <trkpt lat="55.01181" lon="-1.3885">
        <ele>5.26</ele>
        <time>2021-03-21T18:18:54Z</time>
      </trkpt>
      <trkpt lat="55.01298" lon="-1.39675">
        <ele>5.26</ele>
        <time>2021-03-21T18:20:13Z</time>
      </trkpt>
      <trkpt lat="55.01231" lon="-1.40349">
        <ele>5.26</ele>
        <time>2021-03-21T18:21:31Z</time>
      </trkpt>
      <trkpt lat="55.01035" lon="-1.41355">
        <ele>5.26</ele>
        <time>2021-03-21T18:22:50Z</time>
      </trkpt>
      <trkpt lat="55.00961" lon="-1.4216">
        <ele>5.26</ele>
        <time>2021-03-21T18:24:08Z</time>
      </trkpt>
      <trkpt lat="55.00833" lon="-1.42986">
        <ele>5.26</ele>
        <time>2021-03-21T18:25:27Z</time>
      </trkpt>
      <trkpt lat="55.00639" lon="-1.43873">
        <ele>5.26</ele>
        <time>2021-03-21T18:26:46Z</time>
      </trkpt>
      <trkpt lat="55.00523" lon="-1.44092">
        <ele>5.26</ele>
        <time>2021-03-21T18:28:04Z</time>
      </trkpt>
      <trkpt lat="55.00294" lon="-1.44258">
        <ele>5.26</ele>
        <time>2021-03-21T18:29:23Z</time>
      </trkpt>
      <trkpt lat="54.99395" lon="-1.44619">
        <ele>5.26</ele>
        <time>2021-03-21T18:30:41Z</time>
      </trkpt>
      <trkpt lat="54.9922" lon="-1.44726">
        <ele>5.26</ele>
        <time>2021-03-21T18:32:00Z</time>
      </trkpt>
      <trkpt lat="54.98996" lon="-1.44944">
        <ele>5.26</ele>
        <time>2021-03-21T18:33:18Z</time>
      </trkpt>
      <trkpt lat="54.98983" lon="-1.44967">
        <ele>5.26</ele>
        <time>2021-03-21T18:34:37Z</time>
      </trkpt>
      <trkpt lat="54.98974" lon="-1.44995">
        <ele>5.26</ele>
        <time>2021-03-21T18:35:55Z</time>
      </trkpt>
      <trkpt lat="54.9897" lon="-1.45026">
        <ele>5.26</ele>
        <time>2021-03-21T18:37:14Z</time>
      </trkpt>
      <trkpt lat="54.9897" lon="-1.45048">
        <ele>5.26</ele>
        <time>2021-03-21T18:38:32Z</time>
      </trkpt>
      <trkpt lat="54.98973" lon="-1.45069">
        <ele>5.26</ele>
        <time>2021-03-21T18:39:51Z</time>
      </trkpt>
      <trkpt lat="54.98981" lon="-1.45098">
        <ele>5.26</ele>
        <time>2021-03-21T18:41:09Z</time>
      </trkpt>
      <trkpt lat="54.98994" lon="-1.45122">
        <ele>5.26</ele>
        <time>2021-03-21T18:42:28Z</time>
      </trkpt>
      <trkpt lat="54.99012" lon="-1.4514">
        <ele>5.26</ele>
        <time>2021-03-21T18:43:46Z</time>
      </trkpt>
      <trkpt lat="54.99033" lon="-1.45147">
        <ele>5.26</ele>
        <time>2021-03-21T18:45:05Z</time>
      </trkpt>
      <trkpt lat="54.99048" lon="-1.45145">
        <ele>5.26</ele>
        <time>2021-03-21T18:46:23Z</time>
      </trkpt>
      <trkpt lat="54.99063" lon="-1.45136">
        <ele>5.26</ele>
        <time>2021-03-21T18:47:42Z</time>
      </trkpt>
      <trkpt lat="54.99203" lon="-1.44983">
        <ele>5.26</ele>
        <time>2021-03-21T18:49:00Z</time>
      </trkpt>
      <trkpt lat="54.99251" lon="-1.44985">
        <ele>2</ele>
        <time>2021-03-21T18:49:07Z</time>
      </trkpt>
      <trkpt lat="54.99263" lon="-1.44984">
        <ele>2</ele>
        <time>2021-03-21T18:49:14Z</time>
      </trkpt>
      <trkpt lat="54.99271" lon="-1.45032">
        <ele>3</ele>
        <time>2021-03-21T18:49:21Z</time>
      </trkpt>
      <trkpt lat="54.99276" lon="-1.45072">
        <ele>4.19</ele>
        <time>2021-03-21T18:49:28Z</time>
      </trkpt>
      <trkpt lat="54.99279" lon="-1.45157">
        <ele>7.61</ele>
        <time>2021-03-21T18:49:35Z</time>
      </trkpt>
      <trkpt lat="54.99288" lon="-1.4518">
        <ele>7.96</ele>
        <time>2021-03-21T18:49:41Z</time>
      </trkpt>
      <trkpt lat="54.99312" lon="-1.45151">
        <ele>6.77</ele>
        <time>2021-03-21T18:49:52Z</time>
      </trkpt>
      <trkpt lat="54.99344" lon="-1.45278">
        <ele>7.37</ele>
        <time>2021-03-21T18:50:03Z</time>
      </trkpt>
      <trkpt lat="54.99432" lon="-1.45596">
        <ele>11.26</ele>
        <time>2021-03-21T18:50:13Z</time>
      </trkpt>
      <trkpt lat="54.99437" lon="-1.45643">
        <ele>12.73</ele>
        <time>2021-03-21T18:50:24Z</time>
      </trkpt>
      <trkpt lat="54.99436" lon="-1.45679">
        <ele>13.15</ele>
        <time>2021-03-21T18:50:35Z</time>
      </trkpt>
      <trkpt lat="54.99437" lon="-1.45701">
        <ele>13.73</ele>
        <time>2021-03-21T18:50:45Z</time>
      </trkpt>
      <trkpt lat="54.99444" lon="-1.45735">
        <ele>13.96</ele>
        <time>2021-03-21T18:50:56Z</time>
      </trkpt>
      <trkpt lat="54.99451" lon="-1.45747">
        <ele>14.2</ele>
        <time>2021-03-21T18:51:07Z</time>
      </trkpt>
      <trkpt lat="54.99464" lon="-1.45756">
        <ele>14.85</ele>
        <time>2021-03-21T18:51:17Z</time>
      </trkpt>
      <trkpt lat="54.99478" lon="-1.45815">
        <ele>15.86</ele>
        <time>2021-03-21T18:51:19Z</time>
      </trkpt>
      <trkpt lat="54.9949" lon="-1.4588">
        <ele>17</ele>
        <time>2021-03-21T18:51:22Z</time>
      </trkpt>
      <trkpt lat="54.99505" lon="-1.45941">
        <ele>17.33</ele>
        <time>2021-03-21T18:51:24Z</time>
      </trkpt>
      <trkpt lat="54.99509" lon="-1.45967">
        <ele>19.02</ele>
        <time>2021-03-21T18:51:26Z</time>
      </trkpt>
      <trkpt lat="54.9951" lon="-1.45985">
        <ele>20.12</ele>
        <time>2021-03-21T18:51:28Z</time>
      </trkpt>
      <trkpt lat="54.995" lon="-1.45993">
        <ele>20.49</ele>
        <time>2021-03-21T18:51:29Z</time>
      </trkpt>
      <trkpt lat="54.99494" lon="-1.46009">
        <ele>20.83</ele>
        <time>2021-03-21T18:51:30Z</time>
      </trkpt>
      <trkpt lat="54.99493" lon="-1.46027">
        <ele>20.5</ele>
        <time>2021-03-21T18:51:32Z</time>
      </trkpt>
      <trkpt lat="54.99498" lon="-1.46043">
        <ele>20.11</ele>
        <time>2021-03-21T18:51:33Z</time>
      </trkpt>
      <trkpt lat="54.99507" lon="-1.46051">
        <ele>20.52</ele>
        <time>2021-03-21T18:51:34Z</time>
      </trkpt>
      <trkpt lat="54.99516" lon="-1.46065">
        <ele>21.36</ele>
        <time>2021-03-21T18:51:35Z</time>
      </trkpt>
      <trkpt lat="54.99524" lon="-1.4609">
        <ele>23.2</ele>
        <time>2021-03-21T18:51:36Z</time>
      </trkpt>
    </trkseg>
  </trk>
</gpx>